Time;durP1;ratioP1;P1;durP2;ratioP2;P2;SDS_P1;SDS_P2;PMS_P1;PMS_P2;Temp;Humidity;BMP_temperature;BMP_pressure;BME280_temperature;BME280_humidity;BME280_pressure;Samples;Min_cycle;Max_cycle;Signal;HPM_P1;HPM_P2
2023/01/23 00:00:50;;;;;;;23.30;12.85;;;10.30;99.90;;;;;;5188739;28;20042;-60
2023/01/23 00:03:21;;;;;;;22.40;11.70;;;10.50;99.90;;;;;;5188571;28;20026;-60
2023/01/23 00:06:00;;;;;;;25.00;13.70;;;10.50;99.90;;;;;;5188548;28;20460;-61
2023/01/23 00:08:32;;;;;;;22.80;11.88;;;10.30;99.90;;;;;;5188521;28;20026;-59
2023/01/23 00:11:08;;;;;;;21.85;11.65;;;10.30;99.90;;;;;;5188314;28;20125;-60
2023/01/23 00:13:39;;;;;;;21.92;13.15;;;10.20;99.90;;;;;;5188515;28;20026;-60
2023/01/23 00:16:14;;;;;;;22.42;12.82;;;10.10;99.90;;;;;;5188494;28;20037;-61
2023/01/23 00:18:46;;;;;;;21.42;11.93;;;10.20;99.90;;;;;;5188444;28;20030;-60
2023/01/23 00:21:20;;;;;;;25.35;11.52;;;10.10;99.90;;;;;;5188136;28;20030;-60
2023/01/23 00:23:53;;;;;;;21.13;11.98;;;10.30;99.90;;;;;;5188224;28;20037;-61
2023/01/23 00:26:27;;;;;;;21.48;12.63;;;10.30;99.90;;;;;;5188443;28;20104;-63
2023/01/23 00:28:58;;;;;;;20.42;11.02;;;10.00;99.90;;;;;;5188442;28;20026;-61
2023/01/23 00:31:32;;;;;;;21.20;12.95;;;10.20;99.90;;;;;;5188258;28;20066;-60
2023/01/23 00:34:06;;;;;;;20.77;11.98;;;10.40;99.90;;;;;;5187822;28;20069;-60
2023/01/23 00:36:39;;;;;;;25.38;11.57;;;10.00;99.90;;;;;;5187751;28;20581;-63
2023/01/23 00:39:19;;;;;;;23.13;10.80;;;10.20;99.90;;;;;;5187825;28;20037;-60
2023/01/23 00:41:50;;;;;;;24.35;12.07;;;10.00;99.90;;;;;;5187884;28;20026;-62
2023/01/23 00:44:21;;;;;;;19.35;11.02;;;9.80;99.90;;;;;;5187723;28;20041;-59
2023/01/23 00:46:51;;;;;;;19.75;10.82;;;10.20;99.90;;;;;;5187774;28;20421;-60
2023/01/23 00:49:22;;;;;;;19.63;11.57;;;10.20;99.90;;;;;;5186451;28;20071;-61
2023/01/23 00:51:55;;;;;;;19.02;10.35;;;10.00;99.90;;;;;;5187505;28;20042;-60
2023/01/23 00:54:25;;;;;;;18.33;10.75;;;9.80;99.90;;;;;;5187542;28;20057;-60
2023/01/23 00:56:56;;;;;;;16.75;10.43;;;10.00;99.90;;;;;;5187678;28;20054;-60
2023/01/23 00:59:27;;;;;;;18.45;12.43;;;10.10;99.90;;;;;;5187792;28;20030;-60
2023/01/23 01:01:58;;;;;;;18.73;10.00;;;9.90;99.90;;;;;;5187448;28;20366;-60
2023/01/23 01:04:29;;;;;;;16.52;9.82;;;10.00;99.90;;;;;;5187553;28;20033;-63
2023/01/23 01:07:00;;;;;;;23.92;11.70;;;10.00;99.90;;;;;;5187550;28;20172;-61
2023/01/23 01:09:30;;;;;;;20.55;9.82;;;10.10;99.90;;;;;;5187446;28;20382;-60
2023/01/23 01:12:01;;;;;;;19.33;9.50;;;10.00;99.90;;;;;;5179211;28;20121;-60
2023/01/23 01:14:32;;;;;;;18.20;10.25;;;10.10;99.90;;;;;;5167185;28;20038;-60
2023/01/23 01:17:03;;;;;;;21.13;13.00;;;10.30;99.90;;;;;;5167027;28;20109;-60
2023/01/23 01:19:33;;;;;;;16.88;10.07;;;10.10;99.90;;;;;;5166970;28;20027;-60
2023/01/23 01:22:04;;;;;;;19.20;8.85;;;9.80;99.90;;;;;;5166751;28;20045;-59
2023/01/23 01:24:35;;;;;;;21.85;9.20;;;10.20;99.90;;;;;;5166841;28;20033;-60
2023/01/23 01:27:06;;;;;;;19.55;9.18;;;10.40;99.90;;;;;;5166838;28;20035;-60
2023/01/23 01:29:37;;;;;;;19.38;9.05;;;9.90;99.90;;;;;;5166761;28;20026;-63
2023/01/23 01:32:08;;;;;;;16.45;8.57;;;10.00;99.90;;;;;;5166417;28;20049;-64
2023/01/23 01:34:39;;;;;;;18.50;8.15;;;10.30;99.90;;;;;;5181456;28;20027;-59
2023/01/23 01:37:10;;;;;;;17.98;9.65;;;10.10;99.90;;;;;;5166450;28;20058;-59
2023/01/23 01:39:40;;;;;;;12.77;9.25;;;10.20;99.90;;;;;;5166538;28;20489;-59
2023/01/23 01:42:11;;;;;;;24.00;15.73;;;10.10;99.90;;;;;;5166495;28;20108;-59
2023/01/23 01:44:58;;;;;;;24.75;19.33;;;10.10;99.90;;;;;;5166483;28;20031;-60
2023/01/23 01:47:29;;;;;;;17.23;10.57;;;10.10;99.90;;;;;;5166288;28;20031;-60
2023/01/23 01:50:03;;;;;;;16.25;9.07;;;10.00;99.90;;;;;;5166214;28;20026;-60
2023/01/23 01:52:34;;;;;;;17.33;9.18;;;9.90;99.90;;;;;;5166234;28;20100;-60
2023/01/23 01:55:06;;;;;;;23.55;8.88;;;9.80;99.90;;;;;;5166143;28;20073;-60
2023/01/23 01:57:40;;;;;;;16.02;7.97;;;9.90;99.90;;;;;;5166200;28;20497;-59
2023/01/23 02:00:17;;;;;;;11.45;7.90;;;9.70;99.90;;;;;;5165763;28;20390;-60
2023/01/23 02:02:53;;;;;;;12.27;8.02;;;9.70;99.90;;;;;;5165871;28;20057;-60
2023/01/23 02:05:30;;;;;;;16.60;7.90;;;9.80;99.90;;;;;;5165964;28;20030;-61
2023/01/23 02:08:13;;;;;;;21.33;8.27;;;10.10;99.90;;;;;;5166137;28;20054;-60
2023/01/23 02:10:44;;;;;;;17.40;8.85;;;9.80;99.90;;;;;;5165836;28;20125;-63
2023/01/23 02:13:42;;;;;;;15.68;9.85;;;9.80;99.90;;;;;;5165908;28;20100;-60
2023/01/23 02:16:31;;;;;;;18.80;10.77;;;9.80;99.90;;;;;;5166344;28;20562;-59
2023/01/23 02:19:11;;;;;;;10.95;7.25;;;9.70;99.90;;;;;;5166042;28;20434;-60
2023/01/23 02:21:43;;;;;;;18.70;9.20;;;10.10;99.90;;;;;;5166126;28;20023;-60
2023/01/23 02:24:48;;;;;;;19.90;9.63;;;9.90;99.90;;;;;;5165867;28;20109;-63
2023/01/23 02:27:19;;;;;;;15.98;9.55;;;9.90;99.90;;;;;;5165648;28;20031;-63
2023/01/23 02:29:51;;;;;;;19.02;11.45;;;9.90;99.90;;;;;;5165823;28;20026;-60
2023/01/23 02:32:26;;;;;;;16.88;8.95;;;9.60;99.90;;;;;;5165371;28;20045;-59
2023/01/23 02:34:59;;;;;;;19.42;12.90;;;10.00;99.90;;;;;;5165177;28;20022;-60
2023/01/23 02:37:33;;;;;;;17.98;10.13;;;10.00;99.90;;;;;;5165726;28;20065;-60
2023/01/23 02:40:04;;;;;;;17.73;10.27;;;10.00;99.90;;;;;;5165362;28;20096;-59
2023/01/23 02:42:36;;;;;;;20.63;9.23;;;9.80;99.90;;;;;;5165226;28;20031;-60
2023/01/23 02:45:08;;;;;;;17.92;10.40;;;10.00;99.90;;;;;;5165483;28;20505;-59
2023/01/23 02:47:39;;;;;;;21.45;12.05;;;10.10;99.90;;;;;;5165402;28;20362;-60
2023/01/23 02:50:10;;;;;;;20.05;16.13;;;10.10;99.90;;;;;;5165204;28;20154;-60
2023/01/23 02:52:41;;;;;;;24.33;15.27;;;9.80;99.90;;;;;;5165236;28;20049;-60
2023/01/23 02:55:12;;;;;;;29.42;15.30;;;10.00;99.90;;;;;;5165212;28;20030;-60
2023/01/23 02:57:44;;;;;;;15.68;8.40;;;10.00;99.90;;;;;;5165184;28;20397;-62
2023/01/23 03:00:15;;;;;;;17.30;9.13;;;10.10;99.90;;;;;;5165111;28;20027;-61
2023/01/23 03:02:50;;;;;;;18.25;9.10;;;9.80;99.90;;;;;;5164928;28;20054;-60
2023/01/23 03:05:20;;;;;;;16.08;8.55;;;9.70;99.90;;;;;;5165013;28;20029;-60
2023/01/23 03:07:51;;;;;;;21.33;9.65;;;9.80;99.90;;;;;;5164985;28;20030;-60
2023/01/23 03:10:22;;;;;;;17.85;8.27;;;9.90;99.90;;;;;;5165020;28;20093;-60
2023/01/23 03:12:53;;;;;;;19.73;8.98;;;10.10;99.90;;;;;;5167401;28;20336;-60
2023/01/23 03:15:25;;;;;;;15.77;9.10;;;10.20;99.90;;;;;;5169270;28;20032;-63
2023/01/23 03:17:56;;;;;;;19.00;10.75;;;10.20;99.90;;;;;;5169357;28;20032;-60
2023/01/23 03:20:27;;;;;;;22.50;18.85;;;10.00;99.90;;;;;;5169649;28;20026;-60
2023/01/23 03:22:58;;;;;;;18.20;13.13;;;10.20;99.90;;;;;;5169304;28;20022;-59
2023/01/23 03:25:29;;;;;;;21.35;14.10;;;10.10;99.90;;;;;;5169208;28;20466;-63
2023/01/23 03:28:00;;;;;;;21.40;10.23;;;10.10;99.90;;;;;;5169096;28;20105;-60
2023/01/23 03:30:30;;;;;;;18.10;10.98;;;10.00;99.90;;;;;;5169076;28;20035;-60
2023/01/23 03:33:01;;;;;;;17.40;9.02;;;10.20;99.90;;;;;;5168907;28;20038;-60
2023/01/23 03:35:33;;;;;;;21.95;9.80;;;9.90;99.90;;;;;;5168775;28;20457;-60
2023/01/23 03:38:03;;;;;;;18.58;14.27;;;9.90;99.90;;;;;;5168847;28;20065;-60
2023/01/23 03:43:24;;;;;;;23.83;10.68;;;10.30;99.90;;;;;;5168727;28;20057;-63
2023/01/23 03:45:54;;;;;;;16.48;8.63;;;10.00;99.90;;;;;;5168884;28;20462;-60
2023/01/23 03:48:26;;;;;;;17.38;8.95;;;10.00;99.90;;;;;;5168739;28;20037;-60
2023/01/23 03:50:56;;;;;;;19.70;9.63;;;10.20;99.90;;;;;;5168676;28;20038;-60
2023/01/23 03:53:27;;;;;;;17.90;8.77;;;10.30;99.90;;;;;;5168572;28;20057;-60
2023/01/23 03:55:58;;;;;;;15.52;8.93;;;10.10;99.90;;;;;;5168558;28;20510;-60
2023/01/23 03:58:29;;;;;;;25.65;11.20;;;9.90;99.90;;;;;;5168455;28;20076;-60
2023/01/23 04:01:02;;;;;;;12.20;7.53;;;10.20;99.90;;;;;;5168447;28;20038;-61
2023/01/23 04:03:33;;;;;;;18.05;10.50;;;10.20;99.90;;;;;;5168231;28;20495;-62
2023/01/23 04:06:04;;;;;;;22.50;12.68;;;10.10;99.90;;;;;;5168284;28;20042;-60
2023/01/23 04:08:35;;;;;;;20.27;11.25;;;10.00;99.90;;;;;;5168496;28;20034;-60
2023/01/23 04:11:08;;;;;;;23.88;18.00;;;10.20;99.90;;;;;;5168088;28;20371;-62
2023/01/23 04:13:39;;;;;;;16.48;9.10;;;10.10;99.90;;;;;;5168156;28;20467;-60
2023/01/23 04:16:09;;;;;;;16.70;8.95;;;10.30;99.90;;;;;;5168208;28;20045;-60
2023/01/23 04:18:40;;;;;;;20.63;10.30;;;10.10;99.90;;;;;;5168001;28;20018;-60
2023/01/23 04:21:11;;;;;;;17.48;10.23;;;9.80;99.90;;;;;;5168024;28;20066;-60
2023/01/23 04:23:42;;;;;;;21.50;18.50;;;10.00;99.90;;;;;;5167707;28;20030;-60
2023/01/23 04:26:13;;;;;;;16.70;10.82;;;10.30;99.90;;;;;;5167980;28;20060;-61
2023/01/23 04:28:44;;;;;;;24.75;12.27;;;10.30;99.90;;;;;;5167955;28;20033;-62
2023/01/23 04:31:14;;;;;;;14.90;9.02;;;9.90;99.90;;;;;;5167863;28;20041;-61
2023/01/23 04:33:45;;;;;;;20.30;9.95;;;10.00;99.90;;;;;;5167774;28;20034;-60
2023/01/23 04:36:16;;;;;;;18.13;9.77;;;10.00;99.90;;;;;;5167546;28;20057;-60
2023/01/23 04:38:47;;;;;;;14.98;9.65;;;10.00;99.90;;;;;;5167882;28;20030;-60
2023/01/23 04:41:26;;;;;;;15.55;10.60;;;10.00;99.90;;;;;;5168146;28;20199;-63
2023/01/23 04:44:18;;;;;;;12.30;9.88;;;9.90;99.90;;;;;;5167936;28;20463;-59
2023/01/23 04:46:49;;;;;;;15.88;8.43;;;9.90;99.90;;;;;;5167598;28;20054;-59
2023/01/23 04:49:24;;;;;;;15.18;8.90;;;9.80;99.90;;;;;;5167492;28;20042;-60
2023/01/23 04:51:55;;;;;;;14.30;8.35;;;9.80;99.90;;;;;;5167450;28;20039;-61
2023/01/23 04:54:25;;;;;;;17.33;8.48;;;9.90;99.90;;;;;;5167724;28;20023;-60
2023/01/23 04:56:56;;;;;;;14.55;9.50;;;10.10;99.90;;;;;;5167569;28;20030;-60
2023/01/23 04:59:27;;;;;;;18.80;10.00;;;9.90;99.90;;;;;;5167418;28;20030;-60
2023/01/23 05:02:01;;;;;;;17.30;9.85;;;9.80;99.90;;;;;;5167338;28;20022;-60
2023/01/23 05:05:00;;;;;;;22.55;11.10;;;9.80;99.90;;;;;;5166671;28;20394;-60
2023/01/23 05:07:33;;;;;;;20.27;9.45;;;9.80;99.90;;;;;;5173814;28;20250;-59
2023/01/23 05:10:10;;;;;;;21.02;8.98;;;9.70;99.90;;;;;;5166828;28;20034;-60
2023/01/23 05:12:47;;;;;;;20.83;11.13;;;10.00;99.90;;;;;;5167071;28;20046;-60
2023/01/23 05:15:21;;;;;;;20.52;10.95;;;10.00;99.90;;;;;;5167039;28;20092;-60
2023/01/23 05:17:55;;;;;;;16.02;9.85;;;10.00;99.90;;;;;;5166958;28;20027;-60
2023/01/23 05:20:26;;;;;;;21.20;10.85;;;10.00;99.90;;;;;;5166961;28;20375;-63
2023/01/23 05:22:57;;;;;;;18.35;11.93;;;10.00;99.90;;;;;;5166724;28;20022;-60
2023/01/23 05:25:28;;;;;;;17.15;10.00;;;10.00;99.90;;;;;;5166768;28;20147;-60
2023/01/23 05:27:59;;;;;;;22.98;10.23;;;9.80;99.90;;;;;;5166667;28;20110;-60
2023/01/23 05:30:29;;;;;;;22.38;11.15;;;9.70;99.90;;;;;;5166626;28;20570;-59
2023/01/23 05:33:00;;;;;;;25.73;18.42;;;9.80;99.90;;;;;;5166586;28;20085;-59
2023/01/23 05:35:31;;;;;;;24.27;15.23;;;10.10;99.90;;;;;;5165652;28;20050;-62
2023/01/23 05:38:02;;;;;;;20.67;16.92;;;10.20;99.90;;;;;;5166536;28;20042;-62
2023/01/23 05:40:33;;;;;;;26.10;22.05;;;10.20;99.90;;;;;;5166409;28;20387;-62
2023/01/23 05:43:05;;;;;;;23.08;15.60;;;9.70;99.90;;;;;;5166479;28;20060;-60
2023/01/23 05:45:36;;;;;;;17.92;10.68;;;10.00;99.90;;;;;;5166593;28;20065;-60
2023/01/23 05:48:07;;;;;;;20.17;9.48;;;10.00;99.90;;;;;;5166323;28;20356;-62
2023/01/23 05:50:37;;;;;;;13.43;8.13;;;9.90;99.90;;;;;;5166582;28;20041;-60
2023/01/23 05:53:08;;;;;;;25.13;9.43;;;10.10;99.90;;;;;;5166248;28;20029;-60
2023/01/23 05:55:39;;;;;;;15.55;10.00;;;10.00;99.90;;;;;;5166250;28;20026;-60
2023/01/23 05:58:10;;;;;;;23.13;12.98;;;10.10;99.90;;;;;;5166096;28;20380;-62
2023/01/23 06:00:41;;;;;;;16.30;8.98;;;10.00;99.90;;;;;;5166104;28;20197;-60
2023/01/23 06:03:12;;;;;;;23.10;15.98;;;10.10;99.90;;;;;;5166006;28;20026;-61
2023/01/23 06:05:43;;;;;;;17.38;10.60;;;10.00;99.90;;;;;;5165910;28;20038;-63
2023/01/23 06:08:14;;;;;;;24.33;21.98;;;10.20;99.90;;;;;;5166123;28;20385;-63
2023/01/23 06:10:44;;;;;;;11.70;8.85;;;10.00;99.90;;;;;;5165734;28;20022;-63
2023/01/23 06:13:15;;;;;;;17.38;14.07;;;9.80;99.90;;;;;;5165867;28;20049;-63
2023/01/23 06:15:46;;;;;;;17.83;12.57;;;9.90;99.90;;;;;;5165972;28;20015;-63
2023/01/23 06:18:17;;;;;;;22.02;12.20;;;9.90;99.90;;;;;;5165899;28;20042;-63
2023/01/23 06:20:48;;;;;;;21.30;18.58;;;10.00;99.90;;;;;;5165778;28;20031;-63
2023/01/23 06:23:19;;;;;;;22.48;9.75;;;10.00;99.90;;;;;;5165660;28;20403;-63
2023/01/23 06:25:50;;;;;;;19.95;8.95;;;9.90;99.90;;;;;;5165587;28;20105;-61
2023/01/23 06:28:21;;;;;;;17.80;9.32;;;10.00;99.90;;;;;;5165850;28;20371;-62
2023/01/23 06:30:51;;;;;;;16.58;8.95;;;10.00;99.90;;;;;;5165672;28;20027;-61
2023/01/23 06:33:22;;;;;;;18.58;8.70;;;10.00;99.90;;;;;;5165342;28;20478;-61
2023/01/23 06:36:00;;;;;;;17.17;8.68;;;10.00;99.90;;;;;;5165339;28;20093;-61
2023/01/23 06:38:32;;;;;;;18.60;9.68;;;10.10;99.90;;;;;;5165778;28;20062;-61
2023/01/23 06:41:03;;;;;;;24.42;22.02;;;10.00;99.90;;;;;;5165130;28;20059;-64
2023/01/23 06:43:33;;;;;;;15.55;9.68;;;10.20;99.90;;;;;;5165321;28;20026;-65
2023/01/23 06:46:10;;;;;;;21.58;14.63;;;10.20;99.90;;;;;;5165228;28;20041;-60
2023/01/23 06:48:41;;;;;;;13.93;10.52;;;10.20;99.90;;;;;;5165388;28;20077;-61
2023/01/23 06:51:12;;;;;;;31.52;28.88;;;10.20;99.90;;;;;;5165201;28;20088;-60
2023/01/23 06:53:42;;;;;;;14.85;11.05;;;10.20;99.90;;;;;;5165287;28;20031;-64
2023/01/23 06:56:13;;;;;;;24.10;21.67;;;10.20;99.90;;;;;;5165304;28;20362;-60
2023/01/23 06:58:45;;;;;;;16.02;9.82;;;10.30;99.90;;;;;;5165269;28;20022;-60
2023/01/23 07:01:17;;;;;;;19.30;10.73;;;10.40;99.90;;;;;;5165098;28;20030;-61
2023/01/23 07:03:48;;;;;;;19.08;13.13;;;10.20;99.90;;;;;;5165281;28;20026;-61
2023/01/23 07:06:18;;;;;;;24.95;21.50;;;10.30;99.90;;;;;;5165146;28;20018;-60
2023/01/23 07:08:49;;;;;;;21.33;12.98;;;10.10;99.90;;;;;;5163530;28;20173;-61
2023/01/23 07:11:20;;;;;;;17.58;11.77;;;10.20;99.90;;;;;;5165089;28;20075;-61
2023/01/23 07:13:51;;;;;;;24.70;13.15;;;10.20;99.90;;;;;;5165023;28;20033;-60
2023/01/23 07:16:23;;;;;;;14.18;11.02;;;10.50;99.90;;;;;;5165042;28;20026;-64
2023/01/23 07:18:57;;;;;;;20.27;9.48;;;10.40;99.90;;;;;;5165143;28;20030;-63
2023/01/23 07:21:28;;;;;;;22.05;16.70;;;10.20;99.90;;;;;;5161159;28;20034;-60
2023/01/23 07:23:59;;;;;;;19.85;9.30;;;10.20;99.90;;;;;;5164997;28;20085;-61
2023/01/23 07:26:30;;;;;;;17.15;8.73;;;10.40;99.90;;;;;;5164122;28;20054;-61
2023/01/23 07:29:01;;;;;;;13.65;10.32;;;10.40;99.90;;;;;;5164952;28;20102;-60
2023/01/23 07:31:31;;;;;;;15.27;9.77;;;10.40;99.90;;;;;;5165170;28;20451;-60
2023/01/23 07:34:02;;;;;;;15.18;8.25;;;10.40;99.90;;;;;;5165001;28;20030;-60
2023/01/23 07:36:33;;;;;;;21.67;15.75;;;10.20;99.90;;;;;;5164665;28;20046;-61
2023/01/23 07:39:04;;;;;;;33.50;30.33;;;10.40;99.90;;;;;;5164810;28;20026;-63
2023/01/23 07:41:35;;;;;;;13.63;9.77;;;10.40;99.90;;;;;;5164873;28;20156;-60
2023/01/23 07:44:06;;;;;;;18.35;16.05;;;10.40;99.90;;;;;;5164749;28;20044;-60
2023/01/23 07:46:36;;;;;;;14.30;10.27;;;10.40;99.90;;;;;;5164919;28;20443;-60
2023/01/23 07:49:07;;;;;;;18.65;11.05;;;10.50;99.90;;;;;;5165046;28;20050;-60
2023/01/23 07:51:38;;;;;;;13.48;10.00;;;10.30;99.90;;;;;;5164815;28;20395;-61
2023/01/23 07:54:09;;;;;;;17.08;8.02;;;10.40;99.90;;;;;;5164585;28;20514;-60
2023/01/23 07:56:40;;;;;;;17.33;7.75;;;10.60;99.90;;;;;;5164777;28;20109;-61
2023/01/23 07:59:12;;;;;;;13.77;7.97;;;10.40;99.90;;;;;;5167282;28;20030;-61
2023/01/23 08:01:43;;;;;;;17.25;11.18;;;10.30;99.90;;;;;;5168426;28;20478;-61
2023/01/23 08:04:14;;;;;;;22.52;11.30;;;10.50;99.90;;;;;;5168355;28;20085;-60
2023/01/23 08:06:45;;;;;;;14.73;12.13;;;10.40;99.90;;;;;;5168351;28;20435;-61
2023/01/23 08:09:15;;;;;;;13.88;9.10;;;10.40;99.90;;;;;;5165640;28;20120;-60
2023/01/23 08:11:46;;;;;;;13.00;8.75;;;10.40;99.90;;;;;;5162100;28;20034;-61
2023/01/23 08:14:17;;;;;;;16.35;10.65;;;10.50;99.90;;;;;;5151934;28;20030;-62
2023/01/23 08:16:52;;;;;;;20.92;10.57;;;10.50;99.90;;;;;;5145867;28;20046;-63
2023/01/23 08:19:26;;;;;;;17.80;7.10;;;10.40;99.90;;;;;;5162710;28;20344;-64
2023/01/23 08:21:57;;;;;;;16.95;8.75;;;10.70;99.90;;;;;;5162989;28;20061;-61
2023/01/23 08:24:28;;;;;;;16.15;10.30;;;10.80;99.90;;;;;;5162952;28;20022;-65
2023/01/23 08:26:59;;;;;;;15.15;9.48;;;10.80;99.90;;;;;;5162884;28;20031;-67
2023/01/23 08:29:30;;;;;;;15.13;8.63;;;10.40;99.90;;;;;;5162787;28;20065;-63
2023/01/23 08:32:01;;;;;;;18.65;9.80;;;10.30;99.90;;;;;;5163226;28;20373;-65
2023/01/23 08:34:32;;;;;;;18.40;9.82;;;10.40;99.90;;;;;;5652989;23;20062;-61
2023/01/23 08:37:03;;;;;;;15.52;8.85;;;10.50;99.90;;;;;;5166736;28;20737;-61
2023/01/23 08:39:34;;;;;;;17.60;13.68;;;10.70;99.90;;;;;;5173655;28;20097;-59
2023/01/23 08:42:05;;;;;;;18.70;11.80;;;10.70;99.90;;;;;;5169370;28;20085;-63
2023/01/23 08:44:35;;;;;;;22.50;15.13;;;10.70;99.90;;;;;;5171353;28;20052;-63
2023/01/23 08:47:06;;;;;;;25.30;13.55;;;10.80;99.90;;;;;;5173085;28;20029;-65
2023/01/23 08:49:37;;;;;;;16.67;10.90;;;10.90;99.90;;;;;;5173661;28;20449;-61
2023/01/23 08:52:08;;;;;;;15.98;8.65;;;10.70;99.90;;;;;;5170332;28;20796;-58
2023/01/23 08:54:38;;;;;;;18.27;8.88;;;10.60;99.90;;;;;;5169013;28;20034;-58
2023/01/23 08:57:09;;;;;;;16.75;8.25;;;10.60;99.90;;;;;;5171410;28;20049;-59
2023/01/23 08:59:41;;;;;;;20.08;10.20;;;10.70;99.90;;;;;;5170786;28;20731;-57
2023/01/23 09:02:12;;;;;;;18.63;11.07;;;10.70;99.90;;;;;;5155255;28;20038;-57
2023/01/23 09:04:43;;;;;;;13.27;9.02;;;10.90;99.90;;;;;;5170448;28;21324;-60
2023/01/23 09:07:14;;;;;;;14.18;10.13;;;11.10;99.90;;;;;;5169124;28;20040;-58
2023/01/23 09:09:45;;;;;;;15.05;9.80;;;11.00;99.90;;;;;;5173062;28;20542;-60
2023/01/23 09:12:16;;;;;;;16.33;9.10;;;10.70;99.90;;;;;;5174460;28;20084;-59
2023/01/23 09:14:47;;;;;;;11.23;8.40;;;10.80;99.90;;;;;;5170314;28;20530;-61
2023/01/23 09:17:17;;;;;;;13.18;9.35;;;10.80;99.90;;;;;;5173505;28;20026;-61
2023/01/23 09:19:48;;;;;;;13.50;10.05;;;10.80;99.90;;;;;;5176049;28;20370;-60
2023/01/23 09:22:19;;;;;;;12.63;9.15;;;10.90;99.90;;;;;;5172611;28;20904;-61
2023/01/23 09:24:50;;;;;;;17.17;14.43;;;11.00;99.90;;;;;;5173383;28;20084;-60
2023/01/23 09:27:21;;;;;;;14.65;9.57;;;11.00;99.90;;;;;;5172236;28;21297;-60
2023/01/23 09:29:52;;;;;;;10.38;7.25;;;10.90;99.90;;;;;;5172244;28;20026;-59
2023/01/23 09:32:22;;;;;;;11.40;8.13;;;10.90;99.90;;;;;;5170317;28;20050;-61
2023/01/23 09:34:55;;;;;;;17.48;8.80;;;11.00;99.90;;;;;;5664012;22;20050;-59
2023/01/23 09:37:28;;;;;;;13.80;7.32;;;10.60;99.90;;;;;;5137650;28;20093;-60
2023/01/23 09:40:00;;;;;;;16.05;7.63;;;10.80;99.90;;;;;;5159631;28;20835;-57
2023/01/23 09:42:33;;;;;;;16.00;12.05;;;10.60;99.90;;;;;;5150050;28;20029;-59
2023/01/23 09:45:06;;;;;;;21.02;7.93;;;10.30;99.90;;;;;;5154823;28;20109;-58
2023/01/23 09:47:45;;;;;;;15.25;7.60;;;10.30;99.90;;;;;;5151593;28;20226;-62
2023/01/23 09:50:22;;;;;;;15.63;7.90;;;10.60;99.90;;;;;;5154103;28;20626;-62
2023/01/23 09:53:00;;;;;;;17.20;7.22;;;10.50;99.90;;;;;;5155485;28;20030;-60
2023/01/23 09:55:47;;;;;;;21.92;8.65;;;10.20;99.90;;;;;;5148393;28;20031;-60
2023/01/23 09:58:36;;;;;;;15.88;6.85;;;10.40;99.90;;;;;;5151205;28;20041;-61
2023/01/23 10:01:14;;;;;;;17.45;7.45;;;10.20;99.90;;;;;;5155807;28;20449;-57
2023/01/23 10:03:46;;;;;;;19.40;8.32;;;10.10;99.90;;;;;;5148088;28;20065;-64
2023/01/23 10:06:22;;;;;;;14.05;8.02;;;10.10;99.90;;;;;;5171815;28;20121;-55
2023/01/23 10:09:21;;;;;;;14.80;7.78;;;10.00;99.90;;;;;;5165109;28;20030;-58
2023/01/23 10:12:08;;;;;;;16.20;7.97;;;10.10;99.90;;;;;;5152483;28;20066;-57
2023/01/23 10:15:14;;;;;;;16.15;7.32;;;10.10;99.90;;;;;;5145629;28;20434;-60
2023/01/23 10:18:12;;;;;;;16.60;7.90;;;10.30;99.90;;;;;;5145333;28;20110;-61
2023/01/23 10:20:45;;;;;;;17.80;16.15;;;10.10;99.90;;;;;;5144266;28;20027;-61
2023/01/23 10:23:40;;;;;;;20.98;7.68;;;10.10;99.90;;;;;;5145846;28;20446;-59
2023/01/23 10:26:25;;;;;;;14.90;7.68;;;9.80;99.90;;;;;;5145638;28;20065;-61
2023/01/23 10:29:22;;;;;;;15.50;7.88;;;10.00;99.90;;;;;;5145809;28;20027;-68
2023/01/23 10:31:56;;;;;;;12.43;7.82;;;10.20;99.90;;;;;;5147541;28;20051;-65
2023/01/23 10:34:47;;;;;;;16.20;6.90;;;9.90;99.90;;;;;;5145182;28;20042;-64
2023/01/23 10:37:39;;;;;;;11.80;7.28;;;10.10;99.90;;;;;;5145030;28;20126;-66
2023/01/23 10:43:14;;;;;;;10.43;6.50;;;10.10;99.90;;;;;;5135346;28;20093;-49
2023/01/23 10:45:47;;;;;;;13.75;7.30;;;10.10;99.90;;;;;;5145337;28;20111;-58
2023/01/23 10:48:49;;;;;;;15.07;6.30;;;10.00;99.90;;;;;;5145407;28;20483;-53
2023/01/23 10:51:35;;;;;;;9.82;6.30;;;10.20;99.90;;;;;;5145279;28;20545;-53
2023/01/23 10:54:28;;;;;;;17.35;8.40;;;10.20;99.90;;;;;;5145277;28;20483;-50
2023/01/23 10:57:08;;;;;;;13.90;7.22;;;10.30;99.90;;;;;;5145215;28;20526;-51
2023/01/23 11:00:03;;;;;;;20.50;17.67;;;10.10;99.90;;;;;;5145172;28;20125;-50
2023/01/23 11:02:36;;;;;;;13.60;6.82;;;10.20;99.90;;;;;;5145095;28;20042;-50
2023/01/23 11:05:32;;;;;;;15.90;7.80;;;10.00;99.90;;;;;;5144818;28;20031;-54
2023/01/23 11:08:03;;;;;;;13.43;9.60;;;10.10;99.90;;;;;;5157464;28;20030;-55
2023/01/23 11:10:34;;;;;;;12.60;11.20;;;10.20;99.90;;;;;;5165117;28;20030;-53
2023/01/23 11:13:20;;;;;;;17.65;8.52;;;10.20;99.90;;;;;;5165225;28;20504;-58
2023/01/23 11:15:51;;;;;;;12.52;8.63;;;10.10;99.90;;;;;;5165338;28;20022;-57
2023/01/23 11:18:41;;;;;;;8.82;6.13;;;10.00;99.90;;;;;;5164933;28;20022;-55
2023/01/23 11:21:37;;;;;;;11.35;7.13;;;9.90;99.90;;;;;;5165029;28;20027;-54
2023/01/23 11:24:18;;;;;;;13.13;7.50;;;9.80;99.90;;;;;;5165075;28;20483;-56
2023/01/23 11:27:02;;;;;;;17.00;7.60;;;10.00;99.90;;;;;;5164896;28;20371;-55
2023/01/23 11:30:07;;;;;;;13.40;7.30;;;9.80;99.90;;;;;;5165062;28;20412;-63
2023/01/23 11:32:58;;;;;;;13.25;7.40;;;10.10;99.90;;;;;;5165352;28;20042;-55
2023/01/23 11:35:56;;;;;;;11.52;6.07;;;9.90;99.90;;;;;;5168608;28;20458;-54
2023/01/23 11:38:42;;;;;;;14.05;6.55;;;9.90;99.90;;;;;;5169064;28;20036;-53
2023/01/23 11:41:13;;;;;;;10.80;6.57;;;9.80;99.90;;;;;;5168878;28;20030;-56
2023/01/23 11:43:44;;;;;;;15.43;7.15;;;9.90;99.90;;;;;;5168863;28;20026;-54
2023/01/23 11:46:56;;;;;;;9.00;6.43;;;9.80;99.90;;;;;;5168598;28;20390;-67
2023/01/23 11:49:48;;;;;;;9.35;6.57;;;9.80;99.90;;;;;;5168693;28;20037;-68
2023/01/23 11:52:28;;;;;;;12.25;7.15;;;9.80;99.90;;;;;;5168489;28;20045;-65
2023/01/23 11:55:17;;;;;;;13.02;6.28;;;10.00;99.90;;;;;;5168650;28;20031;-52
2023/01/23 11:57:54;;;;;;;18.60;8.35;;;9.80;99.90;;;;;;5168560;28;20037;-70
2023/01/23 12:00:34;;;;;;;14.48;8.75;;;9.70;99.90;;;;;;5168349;28;20032;-52
2023/01/23 12:03:26;;;;;;;15.80;8.40;;;9.80;99.90;;;;;;5168302;28;20034;-52
2023/01/23 12:06:15;;;;;;;20.85;7.22;;;9.60;99.90;;;;;;5167263;28;20070;-60
2023/01/23 12:09:06;;;;;;;18.38;7.47;;;9.70;99.90;;;;;;5167615;28;20022;-70
2023/01/23 12:12:01;;;;;;;13.52;7.43;;;9.80;99.90;;;;;;5168004;28;20188;-70
2023/01/23 12:14:38;;;;;;;15.40;7.10;;;9.90;99.90;;;;;;5167583;28;20407;-53
2023/01/23 12:17:15;;;;;;;11.40;6.80;;;9.90;99.90;;;;;;5168287;28;20030;-49
2023/01/23 12:20:01;;;;;;;11.43;6.93;;;9.70;99.90;;;;;;5168054;28;20088;-62
2023/01/23 12:22:41;;;;;;;15.10;6.50;;;9.80;99.90;;;;;;5168130;28;20084;-57
2023/01/23 12:25:26;;;;;;;16.25;6.43;;;9.60;99.90;;;;;;5167910;28;20058;-53
2023/01/23 12:28:27;;;;;;;12.95;6.70;;;9.70;99.90;;;;;;5168106;28;20105;-67
2023/01/23 12:31:12;;;;;;;15.20;6.40;;;9.50;99.90;;;;;;5166235;28;20042;-53
2023/01/23 12:33:42;;;;;;;11.98;6.70;;;9.70;99.90;;;;;;5167539;28;20031;-59
2023/01/23 12:36:35;;;;;;;14.85;8.10;;;9.50;99.90;;;;;;5151714;28;20371;-60
2023/01/23 12:39:28;;;;;;;19.10;17.45;;;9.60;99.90;;;;;;5147882;28;20509;-60
2023/01/23 12:42:02;;;;;;;18.95;16.95;;;9.70;99.90;;;;;;5147762;28;20023;-55
2023/01/23 12:44:40;;;;;;;21.10;19.00;;;9.80;99.90;;;;;;5147683;28;20053;-69
2023/01/23 12:47:24;;;;;;;22.10;20.02;;;9.80;99.90;;;;;;5147488;28;20499;-58
2023/01/23 12:50:12;;;;;;;12.30;11.00;;;9.80;99.90;;;;;;5147436;28;20038;-57
2023/01/23 12:52:46;;;;;;;13.82;7.22;;;9.70;99.90;;;;;;5147346;28;20030;-71
2023/01/23 12:55:28;;;;;;;14.75;10.93;;;9.80;99.90;;;;;;5147575;28;20368;-53
2023/01/23 12:58:00;;;;;;;11.55;7.45;;;9.60;99.90;;;;;;5147453;28;20849;-51
2023/01/23 13:01:12;;;;;;;12.55;8.80;;;9.60;99.90;;;;;;5147368;28;20033;-55
2023/01/23 13:04:06;;;;;;;15.07;6.50;;;9.70;99.90;;;;;;5146004;28;20043;-51
2023/01/23 13:06:49;;;;;;;11.32;6.43;;;9.50;99.90;;;;;;5147145;28;20495;-54
2023/01/23 13:09:41;;;;;;;14.65;6.20;;;9.60;99.90;;;;;;5147244;28;20023;-69
2023/01/23 13:12:20;;;;;;;12.13;7.20;;;9.80;99.90;;;;;;5147144;28;20058;-51
2023/01/23 13:15:12;;;;;;;14.30;10.38;;;9.60;99.90;;;;;;5146984;28;20026;-57
2023/01/23 13:17:48;;;;;;;13.52;9.45;;;9.60;99.90;;;;;;5146698;28;20148;-60
2023/01/23 13:23:29;;;;;;;16.30;9.02;;;9.50;99.90;;;;;;5147079;28;20592;-52
2023/01/23 13:26:15;;;;;;;15.70;12.65;;;9.80;99.90;;;;;;5146723;28;20035;-50